Time;durP1;ratioP1;P1;durP2;ratioP2;P2;SDS_P1;SDS_P2;PMS_P1;PMS_P2;Temp;Humidity;BMP_temperature;BMP_pressure;BME280_temperature;BME280_humidity;BME280_pressure;Samples;Min_cycle;Max_cycle;Signal;HPM_P1;HPM_P2
2023/04/20 00:02:01;;;;;;;;;;;16.80;39.40;;;;;;5094195;28;19927;-70
2023/04/20 00:04:27;;;;;;;;;;;16.80;39.40;;;;;;5094511;28;19923;-68
2023/04/20 00:06:53;;;;;;;;;;;16.80;39.50;;;;;;5093715;28;19920;-69
2023/04/20 00:09:18;;;;;;;;;;;16.80;39.50;;;;;;5112408;28;19926;-68
2023/04/20 00:11:44;;;;;;;;;;;16.80;39.60;;;;;;5094104;28;20027;-68
2023/04/20 00:14:09;;;;;;;;;;;16.80;39.60;;;;;;5094261;28;19971;-68
2023/04/20 00:16:35;;;;;;;;;;;16.80;39.60;;;;;;5111753;28;19930;-68
2023/04/20 00:19:01;;;;;;;;;;;16.80;39.60;;;;;;5093691;28;19945;-68
2023/04/20 00:21:26;;;;;;;;;;;16.80;39.60;;;;;;5093859;28;19927;-69
2023/04/20 00:23:52;;;;;;;;;;;16.80;39.70;;;;;;5111802;28;19920;-68
2023/04/20 00:26:17;;;;;;;;;;;16.80;39.70;;;;;;5111842;28;19927;-68
2023/04/20 00:28:43;;;;;;;;;;;16.80;39.70;;;;;;5093685;28;19919;-68
2023/04/20 00:31:09;;;;;;;;;;;16.80;39.70;;;;;;5093117;28;19934;-68
2023/04/20 00:33:34;;;;;;;;;;;16.80;39.70;;;;;;5111501;28;20014;-68
2023/04/20 00:36:00;;;;;;;;;;;16.80;39.80;;;;;;5093721;28;19971;-68
2023/04/20 00:38:26;;;;;;;;;;;16.80;39.70;;;;;;5093858;28;19920;-68
2023/04/20 00:40:55;;;;;;;;;;;16.70;39.80;;;;;;5097494;28;19919;-68
2023/04/20 00:43:20;;;;;;;;;;;16.70;39.80;;;;;;5097316;28;19920;-68
2023/04/20 00:45:46;;;;;;;;;;;16.70;39.80;;;;;;5097276;28;19943;-68
2023/04/20 00:48:12;;;;;;;;;;;16.70;39.80;;;;;;5097809;28;19919;-68
2023/04/20 00:50:37;;;;;;;;;;;16.70;39.90;;;;;;5096531;28;20007;-68
2023/04/20 00:53:03;;;;;;;;;;;16.70;39.90;;;;;;5115508;28;20406;-68
2023/04/20 00:55:29;;;;;;;;;;;16.70;39.90;;;;;;5097374;28;20282;-68
2023/04/20 00:57:55;;;;;;;;;;;16.70;40.00;;;;;;5115313;28;19924;-68
2023/04/20 01:00:21;;;;;;;;;;;16.70;40.00;;;;;;5115466;28;19924;-68
2023/04/20 01:02:46;;;;;;;;;;;16.70;40.00;;;;;;5096973;28;19920;-68
2023/04/20 01:05:12;;;;;;;;;;;16.70;40.10;;;;;;5114857;28;19919;-68
2023/04/20 01:07:38;;;;;;;;;;;16.70;40.10;;;;;;5097694;28;19971;-69
2023/04/20 01:10:05;;;;;;;;;;;16.70;40.10;;;;;;5095860;28;20457;-68
2023/04/20 01:12:30;;;;;;;;;;;16.60;40.00;;;;;;5096320;28;20022;-68
2023/04/20 01:14:56;;;;;;;;;;;16.60;40.00;;;;;;5097191;28;20007;-68
2023/04/20 01:17:23;;;;;;;;;;;16.60;40.10;;;;;;5096777;28;19920;-68
2023/04/20 01:19:48;;;;;;;;;;;16.60;40.80;;;;;;5115151;28;19920;-68
2023/04/20 01:22:17;;;;;;;;;;;16.60;40.10;;;;;;5097150;28;19924;-68
2023/04/20 01:24:42;;;;;;;;;;;16.60;40.20;;;;;;5115254;28;19980;-68
2023/04/20 01:27:08;;;;;;;;;;;16.60;40.20;;;;;;5115008;28;19924;-68
2023/04/20 01:29:33;;;;;;;;;;;16.60;40.20;;;;;;5097007;28;20284;-68
2023/04/20 01:31:59;;;;;;;;;;;16.60;40.20;;;;;;5095649;28;19930;-69
2023/04/20 01:34:25;;;;;;;;;;;16.60;40.20;;;;;;5096018;28;20314;-68
2023/04/20 01:36:50;;;;;;;;;;;16.70;40.20;;;;;;5096006;28;19919;-68
2023/04/20 01:39:16;;;;;;;;;;;16.80;40.10;;;;;;5114592;28;20375;-68
2023/04/20 01:41:42;;;;;;;;;;;17.20;39.60;;;;;;5096389;28;19926;-68
2023/04/20 01:44:07;;;;;;;;;;;17.60;39.00;;;;;;5096258;28;19920;-68
2023/04/20 01:46:35;;;;;;;;;;;18.00;38.40;;;;;;5096375;28;19927;-68
2023/04/20 01:49:01;;;;;;;;;;;18.40;37.80;;;;;;5096633;28;20014;-69
2023/04/20 01:51:26;;;;;;;;;;;18.90;37.10;;;;;;5113928;28;20450;-68
2023/04/20 01:53:52;;;;;;;;;;;19.50;36.30;;;;;;5096094;28;20428;-68
2023/04/20 01:56:17;;;;;;;;;;;20.00;35.40;;;;;;5113209;28;20026;-69
2023/04/20 01:58:43;;;;;;;;;;;20.50;34.80;;;;;;5114301;28;19920;-68
2023/04/20 02:01:09;;;;;;;;;;;20.80;34.20;;;;;;5096088;28;20007;-68
2023/04/20 02:03:34;;;;;;;;;;;21.00;33.80;;;;;;5114169;28;20438;-68
2023/04/20 02:06:00;;;;;;;;;;;21.10;33.50;;;;;;5114174;28;20010;-68
2023/04/20 02:08:25;;;;;;;;;;;21.10;33.50;;;;;;5114194;28;19923;-68
2023/04/20 02:10:51;;;;;;;;;;;21.10;33.40;;;;;;5095911;28;19926;-68
2023/04/20 02:13:16;;;;;;;;;;;21.00;33.50;;;;;;5095437;28;19951;-68
2023/04/20 02:15:42;;;;;;;;;;;20.90;33.50;;;;;;5113457;28;19920;-68
2023/04/20 02:18:07;;;;;;;;;;;20.90;33.70;;;;;;5095263;28;19924;-68
2023/04/20 02:20:33;;;;;;;;;;;20.70;33.80;;;;;;5095837;28;19944;-68
2023/04/20 02:22:58;;;;;;;;;;;20.60;34.10;;;;;;5095319;28;20276;-68
2023/04/20 02:25:24;;;;;;;;;;;20.50;34.30;;;;;;5113808;28;19926;-68
2023/04/20 02:27:50;;;;;;;;;;;20.30;34.40;;;;;;5095811;28;19927;-68
2023/04/20 02:30:15;;;;;;;;;;;20.10;34.60;;;;;;5095568;28;19920;-68
2023/04/20 02:32:41;;;;;;;;;;;20.00;34.70;;;;;;5095239;28;19972;-68
2023/04/20 02:35:06;;;;;;;;;;;19.90;34.90;;;;;;5113374;28;19920;-68
2023/04/20 02:37:32;;;;;;;;;;;19.90;35.10;;;;;;5094815;28;19920;-68
2023/04/20 02:39:57;;;;;;;;;;;19.70;35.20;;;;;;5094551;28;19920;-68
2023/04/20 02:42:23;;;;;;;;;;;19.60;35.40;;;;;;5094663;28;19920;-68
2023/04/20 02:44:48;;;;;;;;;;;19.40;36.30;;;;;;5094488;28;19999;-68
2023/04/20 02:47:14;;;;;;;;;;;19.30;35.70;;;;;;5094763;28;19930;-68
2023/04/20 02:49:39;;;;;;;;;;;19.20;35.80;;;;;;5112889;28;19919;-68
2023/04/20 02:52:05;;;;;;;;;;;19.10;36.10;;;;;;5094651;28;20294;-68
2023/04/20 02:54:30;;;;;;;;;;;19.00;36.20;;;;;;5094946;28;19920;-68
2023/04/20 02:56:57;;;;;;;;;;;18.90;36.30;;;;;;5095072;28;19998;-68
2023/04/20 02:59:23;;;;;;;;;;;18.80;36.50;;;;;;5094752;28;19926;-68
2023/04/20 03:01:48;;;;;;;;;;;18.70;36.70;;;;;;5094425;28;19919;-68
2023/04/20 03:04:14;;;;;;;;;;;18.60;36.90;;;;;;5113272;28;19980;-68
2023/04/20 03:06:39;;;;;;;;;;;18.50;37.10;;;;;;5095008;28;20363;-68
2023/04/20 03:09:05;;;;;;;;;;;18.40;37.10;;;;;;5094684;28;19974;-68
2023/04/20 03:11:30;;;;;;;;;;;18.30;37.30;;;;;;5094477;28;19923;-68
2023/04/20 03:13:56;;;;;;;;;;;18.20;37.40;;;;;;5094809;28;20583;-68
2023/04/20 03:16:21;;;;;;;;;;;18.20;37.60;;;;;;5112964;28;20445;-68
2023/04/20 03:18:47;;;;;;;;;;;18.10;37.70;;;;;;5112948;28;19926;-68
2023/04/20 03:21:13;;;;;;;;;;;18.00;37.80;;;;;;5112757;28;20283;-68
2023/04/20 03:23:39;;;;;;;;;;;17.90;37.90;;;;;;5094007;28;19919;-68
2023/04/20 03:26:04;;;;;;;;;;;17.90;38.00;;;;;;5094558;28;19927;-68
2023/04/20 03:28:30;;;;;;;;;;;18.00;38.00;;;;;;5094668;28;20305;-68
2023/04/20 03:30:55;;;;;;;;;;;18.20;37.70;;;;;;5094619;28;19924;-68
2023/04/20 03:33:21;;;;;;;;;;;18.40;37.30;;;;;;5094522;28;19949;-68
2023/04/20 03:35:46;;;;;;;;;;;18.70;36.80;;;;;;5094781;28;19957;-68
2023/04/20 03:38:12;;;;;;;;;;;18.90;36.30;;;;;;5112800;28;19920;-68
2023/04/20 03:40:37;;;;;;;;;;;19.20;36.00;;;;;;5112660;28;19931;-68
2023/04/20 03:43:03;;;;;;;;;;;19.30;35.60;;;;;;5112244;28;19921;-67
2023/04/20 03:45:28;;;;;;;;;;;19.40;35.40;;;;;;5094020;28;20507;-68
2023/04/20 03:47:54;;;;;;;;;;;19.50;35.20;;;;;;5112259;28;20119;-68
2023/04/20 03:50:19;;;;;;;;;;;19.60;35.10;;;;;;5094080;28;19963;-68
2023/04/20 03:52:45;;;;;;;;;;;19.60;35.00;;;;;;5112377;28;19928;-68
2023/04/20 03:55:10;;;;;;;;;;;19.60;35.00;;;;;;5094298;28;19972;-68
2023/04/20 03:57:36;;;;;;;;;;;19.60;35.00;;;;;;5094056;28;19985;-68
2023/04/20 04:00:03;;;;;;;;;;;19.50;35.00;;;;;;5094537;28;20012;-68
2023/04/20 04:02:29;;;;;;;;;;;19.40;35.00;;;;;;5093927;28;19920;-68
2023/04/20 04:04:55;;;;;;;;;;;19.40;35.20;;;;;;5112504;28;19920;-68
2023/04/20 04:07:21;;;;;;;;;;;19.30;35.30;;;;;;5111664;28;20346;-68
2023/04/20 04:09:47;;;;;;;;;;;19.20;35.30;;;;;;5111658;28;19919;-68
2023/04/20 04:12:12;;;;;;;;;;;19.10;35.40;;;;;;5093455;28;19923;-68
2023/04/20 04:14:38;;;;;;;;;;;19.00;35.50;;;;;;5114075;28;19920;-68
2023/04/20 04:17:03;;;;;;;;;;;18.90;35.60;;;;;;5097888;28;19974;-68
2023/04/20 04:19:29;;;;;;;;;;;18.80;35.70;;;;;;5097531;28;19920;-68
2023/04/20 04:21:54;;;;;;;;;;;18.70;35.80;;;;;;5115739;28;19920;-68
2023/04/20 04:24:20;;;;;;;;;;;18.60;35.90;;;;;;5097905;28;19927;-68
2023/04/20 04:26:46;;;;;;;;;;;18.50;36.10;;;;;;5097998;28;20022;-68
2023/04/20 04:29:11;;;;;;;;;;;18.50;36.20;;;;;;5097919;28;19965;-68
2023/04/20 04:31:37;;;;;;;;;;;18.40;36.30;;;;;;5097521;28;19954;-68
2023/04/20 04:34:02;;;;;;;;;;;18.40;36.40;;;;;;5098008;28;19920;-68
2023/04/20 04:36:28;;;;;;;;;;;18.30;36.50;;;;;;5097596;28;19920;-68
2023/04/20 04:38:53;;;;;;;;;;;18.30;36.50;;;;;;5097696;28;19924;-68
2023/04/20 04:41:20;;;;;;;;;;;18.40;36.50;;;;;;5115375;28;20374;-68
2023/04/20 04:43:46;;;;;;;;;;;18.50;36.50;;;;;;5097660;28;19927;-68
2023/04/20 04:46:13;;;;;;;;;;;18.60;36.30;;;;;;5115661;28;20015;-68
2023/04/20 04:48:41;;;;;;;;;;;18.80;36.00;;;;;;5097002;28;19930;-68
2023/04/20 04:51:07;;;;;;;;;;;19.00;35.70;;;;;;5097165;28;19926;-68
2023/04/20 04:53:32;;;;;;;;;;;19.20;35.50;;;;;;5115276;28;19926;-68
2023/04/20 04:55:58;;;;;;;;;;;19.30;35.10;;;;;;5096735;28;19920;-68
2023/04/20 04:58:23;;;;;;;;;;;19.50;35.00;;;;;;5097160;28;20434;-68
2023/04/20 05:00:49;;;;;;;;;;;19.50;34.70;;;;;;5097463;28;19916;-68
2023/04/20 05:03:15;;;;;;;;;;;19.60;34.60;;;;;;5097129;28;19920;-68
2023/04/20 05:05:40;;;;;;;;;;;19.70;34.50;;;;;;5096236;28;19919;-68
2023/04/20 05:08:06;;;;;;;;;;;19.70;34.50;;;;;;5114871;28;19920;-68
2023/04/20 05:10:31;;;;;;;;;;;19.70;34.50;;;;;;5097055;28;20379;-68
2023/04/20 05:12:59;;;;;;;;;;;19.60;34.50;;;;;;5096674;28;20306;-68
2023/04/20 05:15:24;;;;;;;;;;;19.60;34.60;;;;;;5096893;28;20387;-68
2023/04/20 05:17:50;;;;;;;;;;;19.50;34.70;;;;;;5097314;28;19935;-68
2023/04/20 05:20:16;;;;;;;;;;;19.40;34.90;;;;;;5115365;28;20375;-68
2023/04/20 05:22:42;;;;;;;;;;;19.30;35.00;;;;;;5097110;28;19920;-68
2023/04/20 05:25:07;;;;;;;;;;;19.20;35.10;;;;;;5096206;28;19920;-68
2023/04/20 05:27:33;;;;;;;;;;;19.00;35.30;;;;;;5114727;28;19926;-68
2023/04/20 05:29:58;;;;;;;;;;;18.90;35.50;;;;;;5097012;28;20362;-68
2023/04/20 05:32:24;;;;;;;;;;;18.80;35.80;;;;;;5096304;28;20586;-68
2023/04/20 05:34:49;;;;;;;;;;;18.70;35.90;;;;;;5096559;28;19972;-68
2023/04/20 05:37:15;;;;;;;;;;;18.60;36.10;;;;;;5096764;28;20040;-68
2023/04/20 05:39:41;;;;;;;;;;;18.60;36.20;;;;;;5096774;28;20403;-68
2023/04/20 05:42:06;;;;;;;;;;;18.50;36.40;;;;;;5096151;28;20524;-68
2023/04/20 05:44:32;;;;;;;;;;;18.40;36.50;;;;;;5113113;28;19923;-67
2023/04/20 05:46:58;;;;;;;;;;;18.40;36.70;;;;;;5094473;28;19959;-65
2023/04/20 05:49:24;;;;;;;;;;;18.40;37.10;;;;;;5095260;28;19965;-65
2023/04/20 05:51:50;;;;;;;;;;;18.40;37.90;;;;;;5092691;28;19924;-66
2023/04/20 05:54:15;;;;;;;;;;;18.40;38.60;;;;;;5093102;28;20451;-66
2023/04/20 05:56:41;;;;;;;;;;;18.50;38.60;;;;;;5118835;27;19924;-66
2023/04/20 05:59:07;;;;;;;;;;;18.60;38.70;;;;;;5081978;28;20332;-66
2023/04/20 06:01:33;;;;;;;;;;;18.60;38.70;;;;;;5121778;27;19926;-66
2023/04/20 06:03:58;;;;;;;;;;;18.80;38.70;;;;;;5120200;27;21750;-67
2023/04/20 06:06:24;;;;;;;;;;;18.90;38.70;;;;;;5090936;28;19927;-67
2023/04/20 06:08:51;;;;;;;;;;;18.90;38.80;;;;;;5105245;28;20021;-66
2023/04/20 06:11:16;;;;;;;;;;;19.00;38.90;;;;;;5088467;28;19928;-66
2023/04/20 06:13:42;;;;;;;;;;;19.10;39.20;;;;;;5085357;28;20402;-68
2023/04/20 06:16:09;;;;;;;;;;;19.10;39.10;;;;;;5105368;28;19942;-67
2023/04/20 06:18:36;;;;;;;;;;;19.10;39.20;;;;;;5089202;28;20131;-68
2023/04/20 06:21:02;;;;;;;;;;;19.10;39.30;;;;;;5106034;28;20424;-67
2023/04/20 06:23:27;;;;;;;;;;;19.10;39.20;;;;;;5091487;28;19920;-67
2023/04/20 06:25:53;;;;;;;;;;;19.00;39.10;;;;;;5089264;28;19927;-67
2023/04/20 06:28:19;;;;;;;;;;;19.00;39.30;;;;;;5108507;28;19924;-67
2023/04/20 06:30:44;;;;;;;;;;;18.70;39.50;;;;;;5107963;28;19932;-67
2023/04/20 06:33:15;;;;;;;;;;;18.60;39.70;;;;;;5089988;28;19924;-70
2023/04/20 06:35:41;;;;;;;;;;;18.50;40.70;;;;;;5088809;28;20065;-76
2023/04/20 06:38:06;;;;;;;;;;;18.40;40.40;;;;;;5077028;28;20011;-73
2023/04/20 06:40:32;;;;;;;;;;;18.30;40.80;;;;;;5078368;28;19919;-72
2023/04/20 06:42:57;;;;;;;;;;;18.30;41.40;;;;;;5110859;27;19920;-71
2023/04/20 06:45:23;;;;;;;;;;;18.20;42.00;;;;;;5072899;28;19924;-71
2023/04/20 06:47:48;;;;;;;;;;;18.10;42.50;;;;;;5072811;27;19924;-73
2023/04/20 06:50:14;;;;;;;;;;;17.90;42.90;;;;;;5075176;28;19928;-72
2023/04/20 06:52:40;;;;;;;;;;;17.90;43.30;;;;;;5096949;28;20316;-71
2023/04/20 06:55:06;;;;;;;;;;;17.80;43.40;;;;;;5075984;28;19920;-73
2023/04/20 06:57:31;;;;;;;;;;;17.80;43.70;;;;;;5077600;28;19926;-74
2023/04/20 06:59:57;;;;;;;;;;;17.70;43.80;;;;;;5075103;28;19923;-71
2023/04/20 07:02:23;;;;;;;;;;;17.70;43.90;;;;;;5074158;28;19947;-67
2023/04/20 07:04:49;;;;;;;;;;;17.70;44.10;;;;;;5091871;28;19920;-71
2023/04/20 07:07:14;;;;;;;;;;;17.70;44.00;;;;;;5072144;28;20643;-72
2023/04/20 07:09:40;;;;;;;;;;;17.70;43.80;;;;;;5108967;27;19923;-71
2023/04/20 07:12:05;;;;;;;;;;;17.80;43.60;;;;;;5078852;28;19984;-72
2023/04/20 07:14:31;;;;;;;;;;;17.90;43.20;;;;;;5089442;28;19920;-72
2023/04/20 07:16:56;;;;;;;;;;;18.10;42.80;;;;;;5109433;27;19928;-73
2023/04/20 07:19:22;;;;;;;;;;;18.30;42.30;;;;;;5076409;28;19976;-72
2023/04/20 07:21:47;;;;;;;;;;;18.60;41.70;;;;;;5073562;28;20053;-73
2023/04/20 07:24:13;;;;;;;;;;;18.70;41.10;;;;;;5093565;28;19920;-72
2023/04/20 07:26:38;;;;;;;;;;;19.00;40.70;;;;;;5110081;27;20058;-73
2023/04/20 07:29:04;;;;;;;;;;;19.20;40.10;;;;;;5074212;28;19928;-72
2023/04/20 07:31:29;;;;;;;;;;;19.30;39.70;;;;;;5090528;28;19928;-72
2023/04/20 07:33:55;;;;;;;;;;;19.40;39.30;;;;;;5074369;28;19966;-73
2023/04/20 07:36:21;;;;;;;;;;;19.50;39.10;;;;;;5075635;28;20295;-73
2023/04/20 07:38:47;;;;;;;;;;;19.50;38.90;;;;;;5092370;28;19962;-72
2023/04/20 07:41:12;;;;;;;;;;;19.60;38.80;;;;;;5089089;28;19963;-73
2023/04/20 07:43:38;;;;;;;;;;;19.50;38.60;;;;;;5093103;28;19924;-72
2023/04/20 07:46:04;;;;;;;;;;;19.50;38.60;;;;;;5070723;28;19955;-73
2023/04/20 07:48:30;;;;;;;;;;;19.40;38.70;;;;;;5068963;28;20351;-72
2023/04/20 07:50:56;;;;;;;;;;;19.30;38.80;;;;;;5080169;28;19945;-73
2023/04/20 07:53:21;;;;;;;;;;;19.20;39.00;;;;;;5072681;28;20419;-73
2023/04/20 07:55:47;;;;;;;;;;;19.10;39.10;;;;;;5082064;28;19985;-73
2023/04/20 07:58:13;;;;;;;;;;;18.90;39.30;;;;;;5082868;28;19958;-72
2023/04/20 08:00:38;;;;;;;;;;;18.80;39.50;;;;;;5080468;28;19924;-73
2023/04/20 08:03:04;;;;;;;;;;;18.70;39.70;;;;;;5077589;28;19927;-73
2023/04/20 08:05:29;;;;;;;;;;;18.60;39.80;;;;;;5077659;28;19930;-73
2023/04/20 08:07:55;;;;;;;;;;;18.40;40.00;;;;;;5075003;28;19936;-73
2023/04/20 08:10:20;;;;;;;;;;;18.40;40.10;;;;;;5078390;28;19975;-73
2023/04/20 08:12:46;;;;;;;;;;;18.30;40.30;;;;;;5075931;28;19927;-72
2023/04/20 08:15:13;;;;;;;;;;;18.20;40.40;;;;;;5096477;28;19996;-73
2023/04/20 08:17:38;;;;;;;;;;;18.10;40.50;;;;;;5078173;28;20327;-71
2023/04/20 08:20:05;;;;;;;;;;;18.10;40.70;;;;;;5074606;28;20018;-69
2023/04/20 08:22:31;;;;;;;;;;;18.10;40.80;;;;;;5075952;28;20363;-73
2023/04/20 08:24:56;;;;;;;;;;;18.10;40.90;;;;;;5081521;28;19924;-73
2023/04/20 08:27:22;;;;;;;;;;;18.10;40.90;;;;;;5078606;27;19923;-73
2023/04/20 08:29:48;;;;;;;;;;;18.20;40.80;;;;;;5077521;28;19927;-75
2023/04/20 08:32:14;;;;;;;;;;;18.30;40.60;;;;;;5094162;28;19942;-79
2023/04/20 08:34:40;;;;;;;;;;;18.50;40.30;;;;;;5097362;28;19970;-74
2023/04/20 08:37:05;;;;;;;;;;;18.70;40.00;;;;;;5096689;28;19920;-74
2023/04/20 08:39:31;;;;;;;;;;;19.00;39.70;;;;;;5073359;28;19924;-76
2023/04/20 08:41:57;;;;;;;;;;;19.10;39.30;;;;;;5071020;28;19928;-75
2023/04/20 08:44:23;;;;;;;;;;;19.30;39.00;;;;;;5089797;28;19928;-75
2023/04/20 08:46:49;;;;;;;;;;;19.40;38.70;;;;;;5103289;27;19924;-71
2023/04/20 08:49:16;;;;;;;;;;;19.40;38.50;;;;;;5075410;28;19927;-71
2023/04/20 08:51:42;;;;;;;;;;;19.50;38.50;;;;;;5082977;28;20308;-72
2023/04/20 08:54:09;;;;;;;;;;;19.40;38.40;;;;;;5100635;27;19928;-72
2023/04/20 08:56:35;;;;;;;;;;;19.40;38.40;;;;;;5069772;28;19958;-73
2023/04/20 08:59:02;;;;;;;;;;;19.40;38.40;;;;;;5067229;28;20031;-70
2023/04/20 09:01:28;;;;;;;;;;;19.30;38.50;;;;;;5072118;28;20014;-71
2023/04/20 09:03:53;;;;;;;;;;;19.20;38.50;;;;;;5078009;28;19927;-71
2023/04/20 09:06:19;;;;;;;;;;;19.10;38.60;;;;;;5080270;28;19924;-71
2023/04/20 09:08:45;;;;;;;;;;;19.00;38.80;;;;;;5106346;27;19924;-72
2023/04/20 09:11:27;;;;;;;;;;;18.90;38.90;;;;;;5090504;28;20330;-70
2023/04/20 09:14:00;;;;;;;;;;;18.80;39.10;;;;;;5091972;28;19927;-71
2023/04/20 09:16:26;;;;;;;;;;;18.70;39.40;;;;;;5072921;28;19920;-71
2023/04/20 09:18:53;;;;;;;;;;;18.60;39.60;;;;;;5090449;28;20306;-72
2023/04/20 09:21:20;;;;;;;;;;;18.50;39.80;;;;;;5072665;28;20030;-72
2023/04/20 09:24:06;;;;;;;;;;;18.40;39.90;;;;;;5091072;28;19976;-69
2023/04/20 09:26:32;;;;;;;;;;;18.40;40.10;;;;;;5079825;28;20787;-71
2023/04/20 09:28:58;;;;;;;;;;;18.20;40.20;;;;;;5071874;28;19927;-70
2023/04/20 09:31:24;;;;;;;;;;;18.20;40.40;;;;;;5072847;28;19933;-70
2023/04/20 09:34:04;;;;;;;;;;;18.20;40.50;;;;;;5076129;28;19932;-70
2023/04/20 09:36:41;;;;;;;;;;;18.10;40.60;;;;;;5079772;28;19924;-70
2023/04/20 09:41:49;;;;;;;;;;;18.20;40.80;;;;;;5070623;27;19923;-68
2023/04/20 09:44:15;;;;;;;;;;;18.20;40.80;;;;;;5071607;28;19920;-68
2023/04/20 09:46:41;;;;;;;;;;;18.40;40.70;;;;;;5101559;27;19931;-68
2023/04/20 09:49:07;;;;;;;;;;;18.50;40.50;;;;;;5066207;28;19934;-69
2023/04/20 09:51:34;;;;;;;;;;;18.70;40.20;;;;;;5050345;28;19931;-69
2023/04/20 09:54:00;;;;;;;;;;;18.80;39.90;;;;;;5069976;28;19928;-68
2023/04/20 09:56:26;;;;;;;;;;;19.00;39.70;;;;;;5073353;28;19920;-72
2023/04/20 09:58:53;;;;;;;;;;;19.10;39.50;;;;;;5096429;27;19936;-69
2023/04/20 10:01:18;;;;;;;;;;;19.20;40.40;;;;;;5097237;27;19925;-71
2023/04/20 10:03:44;;;;;;;;;;;19.20;41.10;;;;;;5069934;28;19935;-69
2023/04/20 10:06:17;;;;;;;;;;;19.30;41.40;;;;;;5065448;28;19925;-66
2023/04/20 10:08:43;;;;;;;;;;;19.20;41.60;;;;;;5064616;28;19932;-70
2023/04/20 10:11:08;;;;;;;;;;;19.30;41.90;;;;;;5069333;28;19928;-67
2023/04/20 10:13:36;;;;;;;;;;;19.20;41.90;;;;;;5065464;28;19931;-67
2023/04/20 10:16:01;;;;;;;;;;;19.10;42.10;;;;;;5070572;28;19980;-68
2023/04/20 10:18:27;;;;;;;;;;;19.10;42.50;;;;;;5068461;28;19932;-63
2023/04/20 10:21:03;;;;;;;;;;;18.90;42.60;;;;;;5068757;28;20372;-66
2023/04/20 10:23:29;;;;;;;;;;;18.80;42.90;;;;;;5067516;28;19924;-68
2023/04/20 10:25:56;;;;;;;;;;;18.70;43.10;;;;;;5067849;28;19935;-68
2023/04/20 10:28:22;;;;;;;;;;;18.60;43.30;;;;;;5101836;27;19924;-69
2023/04/20 10:30:49;;;;;;;;;;;18.50;43.40;;;;;;5067452;28;20384;-69
2023/04/20 10:33:16;;;;;;;;;;;18.40;43.40;;;;;;5069077;28;19939;-69
2023/04/20 10:35:45;;;;;;;;;;;18.40;43.50;;;;;;5065893;28;20292;-70
2023/04/20 10:38:11;;;;;;;;;;;18.30;43.50;;;;;;5071100;28;19928;-69
2023/04/20 10:40:36;;;;;;;;;;;18.20;43.70;;;;;;5074563;28;20434;-68
2023/04/20 10:43:02;;;;;;;;;;;18.10;43.80;;;;;;5069654;28;19929;-70
2023/04/20 10:45:35;;;;;;;;;;;18.10;44.00;;;;;;5065027;28;19955;-69
2023/04/20 10:48:08;;;;;;;;;;;18.00;43.90;;;;;;5065204;28;19924;-68
2023/04/20 10:50:33;;;;;;;;;;;17.90;44.00;;;;;;5066754;28;19935;-68
2023/04/20 10:52:59;;;;;;;;;;;17.90;44.70;;;;;;5050752;28;19920;-70
2023/04/20 10:55:25;;;;;;;;;;;17.80;45.00;;;;;;5054130;28;19935;-68
2023/04/20 10:57:50;;;;;;;;;;;17.90;45.50;;;;;;5084906;27;19920;-67
2023/04/20 11:00:17;;;;;;;;;;;17.80;45.80;;;;;;5055731;28;19978;-71
2023/04/20 11:02:47;;;;;;;;;;;17.80;46.00;;;;;;5060202;28;19928;-68
2023/04/20 11:05:13;;;;;;;;;;;17.80;46.10;;;;;;5052991;28;19927;-68
2023/04/20 11:10:38;;;;;;;;;;;17.90;46.30;;;;;;5057128;28;19920;-68
2023/04/20 11:13:04;;;;;;;;;;;17.90;46.20;;;;;;5073141;28;19928;-68
2023/04/20 11:15:30;;;;;;;;;;;18.00;46.10;;;;;;5058678;28;19939;-67
2023/04/20 11:18:04;;;;;;;;;;;18.10;45.80;;;;;;5055165;28;19935;-67
2023/04/20 11:20:30;;;;;;;;;;;18.10;45.40;;;;;;5054087;28;20376;-68
2023/04/20 11:22:58;;;;;;;;;;;18.20;45.20;;;;;;5051435;28;19939;-70
2023/04/20 11:25:24;;;;;;;;;;;18.30;45.10;;;;;;5052822;28;19929;-65
2023/04/20 11:27:49;;;;;;;;;;;18.30;45.00;;;;;;5048403;28;19933;-65
2023/04/20 11:30:15;;;;;;;;;;;18.30;44.90;;;;;;5053672;28;19932;-66
2023/04/20 11:32:40;;;;;;;;;;;18.30;44.90;;;;;;5064309;28;19928;-71
2023/04/20 11:35:07;;;;;;;;;;;18.30;44.90;;;;;;5053154;28;19939;-68
2023/04/20 11:37:33;;;;;;;;;;;18.60;45.20;;;;;;5055727;28;19970;-67
2023/04/20 11:40:00;;;;;;;;;;;19.00;44.70;;;;;;5048820;28;19950;-66
2023/04/20 11:42:26;;;;;;;;;;;19.30;44.10;;;;;;5059706;28;19929;-69
2023/04/20 11:44:51;;;;;;;;;;;19.80;43.50;;;;;;5053485;28;19926;-67
2023/04/20 11:47:17;;;;;;;;;;;20.20;42.80;;;;;;5048919;28;19933;-69
2023/04/20 11:49:43;;;;;;;;;;;20.80;41.90;;;;;;5051733;28;19936;-67
2023/04/20 11:52:08;;;;;;;;;;;21.30;41.20;;;;;;5038891;28;20477;-67
2023/04/20 11:54:34;;;;;;;;;;;21.80;40.30;;;;;;5046099;28;19960;-67
2023/04/20 11:57:00;;;;;;;;;;;22.20;39.70;;;;;;5055312;28;19975;-66
2023/04/20 11:59:25;;;;;;;;;;;22.50;39.10;;;;;;5049465;28;20458;-67
2023/04/20 12:01:51;;;;;;;;;;;22.80;38.60;;;;;;5051224;28;20407;-74
2023/04/20 12:04:16;;;;;;;;;;;23.10;38.40;;;;;;5048068;28;19927;-66
2023/04/20 12:06:42;;;;;;;;;;;23.20;38.10;;;;;;5050888;28;19975;-68
2023/04/20 12:09:07;;;;;;;;;;;23.50;37.90;;;;;;5056002;28;19929;-68
2023/04/20 12:11:33;;;;;;;;;;;23.70;37.50;;;;;;5057749;28;20007;-66
2023/04/20 12:13:59;;;;;;;;;;;23.90;37.30;;;;;;5051062;28;19933;-66
2023/04/20 12:16:24;;;;;;;;;;;23.90;37.10;;;;;;5047337;28;19968;-66
2023/04/20 12:18:50;;;;;;;;;;;24.00;36.90;;;;;;5049661;28;19928;-70
2023/04/20 12:21:15;;;;;;;;;;;24.10;37.00;;;;;;5037701;28;20446;-70
2023/04/20 12:23:42;;;;;;;;;;;24.10;36.80;;;;;;5034756;28;19932;-70
2023/04/20 12:26:08;;;;;;;;;;;24.20;36.50;;;;;;5034718;28;20458;-65
2023/04/20 12:28:33;;;;;;;;;;;24.20;36.60;;;;;;5039760;28;19929;-71
2023/04/20 12:30:59;;;;;;;;;;;24.20;36.70;;;;;;5035634;28;20031;-71
2023/04/20 12:33:25;;;;;;;;;;;24.30;36.50;;;;;;5036269;28;20058;-67
2023/04/20 12:35:50;;;;;;;;;;;24.30;36.30;;;;;;5040324;28;20430;-66
2023/04/20 12:38:16;;;;;;;;;;;24.30;36.20;;;;;;5038282;28;19925;-66
2023/04/20 12:40:41;;;;;;;;;;;24.40;36.10;;;;;;5044134;28;20071;-68
2023/04/20 12:43:07;;;;;;;;;;;24.40;36.20;;;;;;5038325;28;20386;-68
2023/04/20 12:45:33;;;;;;;;;;;24.40;36.20;;;;;;5039018;28;20016;-66
2023/04/20 12:47:59;;;;;;;;;;;24.50;36.20;;;;;;5034219;28;20083;-67
2023/04/20 12:50:24;;;;;;;;;;;24.60;35.90;;;;;;5031711;28;20526;-68
2023/04/20 12:52:51;;;;;;;;;;;24.70;35.80;;;;;;5049780;28;19925;-66
2023/04/20 12:55:17;;;;;;;;;;;24.70;35.60;;;;;;5035695;28;19951;-70
2023/04/20 12:57:43;;;;;;;;;;;24.50;35.80;;;;;;5034929;28;20475;-68
2023/04/20 13:00:08;;;;;;;;;;;24.50;36.10;;;;;;5037096;28;19928;-67
2023/04/20 13:02:34;;;;;;;;;;;24.50;36.10;;;;;;5036855;28;19921;-67
2023/04/20 13:05:00;;;;;;;;;;;24.60;35.60;;;;;;5036076;28;20026;-68
2023/04/20 13:07:26;;;;;;;;;;;24.60;35.00;;;;;;5039886;28;19925;-68
2023/04/20 13:09:52;;;;;;;;;;;24.60;34.80;;;;;;5038809;28;19932;-67
2023/04/20 13:12:18;;;;;;;;;;;24.50;34.80;;;;;;5036504;28;19920;-67
2023/04/20 13:14:43;;;;;;;;;;;24.40;34.70;;;;;;5038323;28;20288;-67
2023/04/20 13:17:09;;;;;;;;;;;24.30;34.90;;;;;;5040782;28;19921;-68
2023/04/20 13:19:34;;;;;;;;;;;24.10;35.10;;;;;;5039317;28;19924;-67
2023/04/20 13:22:00;;;;;;;;;;;24.10;35.10;;;;;;5039320;28;19929;-68
2023/04/20 13:24:25;;;;;;;;;;;24.20;35.10;;;;;;5041276;28;19931;-66
2023/04/20 13:26:55;;;;;;;;;;;24.20;35.40;;;;;;5039757;28;19925;-66
2023/04/20 13:29:21;;;;;;;;;;;24.10;35.20;;;;;;5054853;28;19977;-63
2023/04/20 13:31:47;;;;;;;;;;;24.10;35.20;;;;;;5038748;28;20339;-66
2023/04/20 13:34:12;;;;;;;;;;;24.10;35.30;;;;;;5041631;28;19998;-66
2023/04/20 13:36:38;;;;;;;;;;;24.20;35.50;;;;;;5041140;28;19925;-65
2023/04/20 13:39:03;;;;;;;;;;;24.20;35.40;;;;;;5037455;28;19927;-69
2023/04/20 13:41:29;;;;;;;;;;;24.30;35.50;;;;;;5036098;28;20110;-65
2023/04/20 13:43:56;;;;;;;;;;;24.30;35.50;;;;;;5042853;28;19921;-68
2023/04/20 13:46:22;;;;;;;;;;;24.40;35.50;;;;;;5039250;28;20444;-67
2023/04/20 13:48:47;;;;;;;;;;;24.50;35.50;;;;;;5041103;28;20020;-66
2023/04/20 13:51:13;;;;;;;;;;;24.60;35.10;;;;;;5038693;28;20623;-65
2023/04/20 13:53:38;;;;;;;;;;;24.60;34.80;;;;;;5039911;28;20008;-66
2023/04/20 13:56:04;;;;;;;;;;;24.50;35.00;;;;;;5039692;28;20008;-68
2023/04/20 13:58:29;;;;;;;;;;;24.50;35.10;;;;;;5041468;28;19927;-66
2023/04/20 14:00:55;;;;;;;;;;;24.50;35.00;;;;;;5036766;28;19931;-66
2023/04/20 14:03:20;;;;;;;;;;;24.50;35.10;;;;;;5037238;28;19975;-65
2023/04/20 14:05:46;;;;;;;;;;;24.60;35.10;;;;;;5038793;28;19951;-67
2023/04/20 14:08:12;;;;;;;;;;;24.60;35.10;;;;;;5049401;28;20027;-67
2023/04/20 14:10:39;;;;;;;;;;;24.70;35.10;;;;;;5034266;28;19964;-71
2023/04/20 14:13:05;;;;;;;;;;;24.60;35.10;;;;;;5039628;28;20810;-68
2023/04/20 14:15:31;;;;;;;;;;;24.60;35.10;;;;;;5050331;28;20003;-66